createdAt,value
2022-08-08T00:00:50.085Z,15.25
2022-08-08T00:02:43.125Z,15.22
2022-08-08T00:05:14.122Z,15.17
2022-08-08T00:08:10.030Z,15.12
2022-08-08T00:10:59.338Z,15.11
2022-08-08T00:14:15.074Z,15.11
2022-08-08T00:16:45.699Z,15.12
2022-08-08T00:19:28.237Z,15.12
2022-08-08T00:22:51.389Z,15.13
2022-08-08T00:25:39.173Z,15.14
2022-08-08T00:28:35.864Z,15.16
2022-08-08T00:32:15.206Z,15.17
2022-08-08T00:34:41.306Z,15.19
2022-08-08T00:38:01.520Z,15.19
2022-08-08T00:41:11.940Z,15.19
2022-08-08T00:43:40.182Z,15.19
2022-08-08T00:46:57.773Z,15.18
2022-08-08T00:49:59.330Z,15.16
2022-08-08T00:52:48.559Z,15.16
2022-08-08T00:55:52.805Z,15.18
2022-08-08T00:58:54.141Z,15.17
2022-08-08T01:02:05.975Z,15.14
2022-08-08T01:05:59.370Z,15.13
2022-08-08T01:08:46.710Z,15.15
2022-08-08T01:11:57.819Z,15.17
2022-08-08T01:14:53.367Z,15.14
2022-08-08T01:17:18.010Z,15.13
2022-08-08T01:20:03.754Z,15.13
2022-08-08T01:22:50.572Z,15.11
2022-08-08T01:25:54.293Z,15.07
2022-08-08T01:29:23.896Z,15.07
2022-08-08T01:32:17.575Z,15.05
2022-08-08T01:34:57.152Z,15.02
2022-08-08T01:37:58.395Z,14.99
2022-08-08T01:41:11.748Z,14.96
2022-08-08T01:44:07.003Z,14.92
2022-08-08T01:48:07.139Z,14.92
2022-08-08T01:50:44.309Z,14.91
2022-08-08T01:55:16.386Z,14.92
2022-08-08T01:56:31.252Z,14.92
2022-08-08T01:59:17.776Z,14.94
2022-08-08T02:02:34.003Z,14.94
2022-08-08T02:05:56.679Z,14.93
2022-08-08T02:08:45.538Z,14.91
2022-08-08T02:11:58.984Z,14.90
2022-08-08T02:14:55.826Z,14.87
2022-08-08T02:17:44.067Z,14.76
2022-08-08T02:21:18.178Z,14.79
2022-08-08T02:23:55.949Z,14.75
2022-08-08T02:26:33.437Z,14.71
2022-08-08T02:29:47.079Z,14.68
2022-08-08T02:32:31.285Z,14.63
2022-08-08T02:35:11.118Z,14.62
2022-08-08T02:38:15.297Z,14.61
2022-08-08T02:41:57.894Z,14.60
2022-08-08T02:44:39.288Z,14.59
2022-08-08T02:47:32.106Z,14.59
2022-08-08T02:50:40.056Z,14.60
2022-08-08T02:53:47.762Z,14.65
2022-08-08T02:56:39.386Z,14.69
2022-08-08T03:00:26.944Z,14.75
2022-08-08T03:05:01.090Z,14.83
2022-08-08T03:06:44.719Z,14.88
2022-08-08T03:10:00.698Z,14.93
2022-08-08T03:13:02.680Z,14.98
2022-08-08T03:16:08.863Z,15.03
2022-08-08T03:18:54.284Z,15.06
2022-08-08T03:21:27.007Z,15.07
2022-08-08T03:24:09.121Z,15.08
2022-08-08T03:26:43.785Z,15.08
2022-08-08T03:29:20.829Z,15.03
2022-08-08T03:32:29.253Z,14.95
2022-08-08T03:34:58.814Z,14.84
2022-08-08T03:38:54.880Z,14.78
2022-08-08T03:40:30.467Z,14.75
2022-08-08T03:43:15.579Z,14.69
2022-08-08T03:46:06.058Z,14.65
2022-08-08T03:49:08.881Z,14.65
2022-08-08T03:51:40.290Z,14.68
2022-08-08T03:54:10.304Z,14.74
2022-08-08T03:56:46.243Z,14.81
2022-08-08T03:59:23.102Z,14.85
2022-08-08T04:02:12.553Z,14.90
2022-08-08T04:04:42.585Z,14.91
2022-08-08T04:07:16.430Z,14.91
2022-08-08T04:10:03.052Z,14.91
2022-08-08T04:12:34.471Z,14.95
2022-08-08T04:15:03.212Z,15.01
2022-08-08T04:17:46.601Z,15.12
2022-08-08T04:20:19.843Z,15.22
2022-08-08T04:22:58.226Z,15.32
2022-08-08T04:25:30.201Z,15.42
2022-08-08T04:28:35.266Z,15.51
2022-08-08T04:30:55.257Z,15.60
2022-08-08T04:33:26.953Z,15.69
2022-08-08T04:35:56.095Z,15.82
2022-08-08T04:38:24.701Z,16.06
2022-08-08T04:40:55.736Z,16.73
2022-08-08T04:43:31.984Z,17.97
2022-08-08T04:46:14.967Z,19.41
2022-08-08T04:48:43.769Z,20.18
2022-08-08T04:51:12.185Z,20.38
2022-08-08T04:54:37.441Z,20.42
2022-08-08T04:56:40.054Z,20.75
2022-08-08T04:59:08.349Z,21.40
2022-08-08T05:01:48.711Z,21.87
2022-08-08T05:04:18.053Z,21.78
2022-08-08T05:06:50.566Z,21.48
2022-08-08T05:09:20.684Z,21.22
2022-08-08T05:11:56.939Z,21.02
2022-08-08T05:14:26.053Z,20.81
2022-08-08T05:17:00.870Z,20.72
2022-08-08T05:20:12.279Z,20.69
2022-08-08T05:22:27.887Z,20.68
2022-08-08T05:24:58.851Z,20.70
2022-08-08T05:27:26.684Z,20.65
2022-08-08T05:30:01.582Z,20.49
2022-08-08T05:32:40.130Z,20.27
2022-08-08T05:35:13.662Z,20.15
2022-08-08T05:37:53.686Z,20.27
2022-08-08T05:40:30.524Z,21.00
2022-08-08T05:43:17.166Z,22.21
2022-08-08T05:46:07.851Z,23.69
2022-08-08T05:48:39.120Z,24.51
2022-08-08T05:51:13.366Z,24.93
2022-08-08T05:54:24.545Z,25.52
2022-08-08T05:56:42.547Z,26.47
2022-08-08T06:00:00.756Z,27.43
2022-08-08T06:02:48.838Z,28.00
2022-08-08T06:05:34.514Z,27.83
2022-08-08T06:08:08.994Z,27.31
2022-08-08T06:10:40.751Z,27.20
2022-08-08T06:13:12.507Z,26.98
2022-08-08T06:15:50.818Z,26.69
2022-08-08T06:18:26.470Z,26.62
2022-08-08T06:20:57.756Z,26.76
2022-08-08T06:23:52.617Z,27.33
2022-08-08T06:26:43.145Z,28.35
2022-08-08T06:29:26.308Z,29.36
2022-08-08T06:32:09.961Z,30.16
2022-08-08T06:34:52.597Z,31.10
2022-08-08T06:37:39.526Z,31.86
2022-08-08T06:40:16.480Z,32.34
2022-08-08T06:43:06.556Z,32.60
2022-08-08T06:45:57.752Z,32.74
2022-08-08T06:48:26.777Z,32.92
2022-08-08T06:50:57.626Z,33.10
2022-08-08T06:53:39.730Z,33.39
2022-08-08T06:56:09.711Z,33.72
2022-08-08T06:58:39.999Z,34.18
2022-08-08T07:02:17.043Z,34.56
2022-08-08T07:04:37.534Z,35.04
2022-08-08T07:07:12.272Z,35.38
2022-08-08T07:10:08.270Z,35.55
2022-08-08T07:12:47.762Z,35.78
2022-08-08T07:16:05.938Z,36.08
2022-08-08T07:18:43.371Z,36.10
2022-08-08T07:21:20.623Z,35.59
2022-08-08T07:24:25.327Z,34.94
2022-08-08T07:27:00.366Z,34.38
2022-08-08T07:29:59.912Z,34.27
2022-08-08T07:32:25.680Z,34.13
2022-08-08T07:35:01.005Z,34.16
2022-08-08T07:37:56.400Z,34.26
2022-08-08T07:40:43.724Z,34.42
2022-08-08T07:43:14.424Z,34.55
2022-08-08T07:45:51.596Z,34.54
2022-08-08T07:48:35.999Z,34.62
2022-08-08T07:51:05.266Z,34.27
2022-08-08T07:54:01.812Z,34.25
2022-08-08T07:56:55.354Z,34.78
2022-08-08T07:59:37.897Z,35.21
2022-08-08T08:02:33.339Z,35.22
2022-08-08T08:05:01.136Z,35.17
2022-08-08T08:07:38.658Z,35.17
2022-08-08T08:10:13.085Z,35.40
2022-08-08T08:12:52.166Z,35.86
2022-08-08T08:15:26.775Z,35.95
2022-08-08T08:18:04.904Z,35.20
2022-08-08T08:20:35.702Z,34.94
2022-08-08T08:23:06.130Z,34.98
2022-08-08T08:25:42.963Z,35.25
2022-08-08T08:28:21.626Z,35.73
2022-08-08T08:30:54.380Z,35.84
2022-08-08T08:33:25.292Z,35.68
2022-08-08T08:36:19.011Z,35.71
2022-08-08T08:38:49.256Z,36.10
2022-08-08T08:41:20.059Z,36.32
2022-08-08T08:43:51.268Z,36.24
2022-08-08T08:46:25.911Z,36.00
2022-08-08T08:48:55.690Z,36.05
2022-08-08T08:51:28.455Z,36.27
2022-08-08T08:54:02.294Z,36.29
2022-08-08T08:56:37.706Z,35.85
2022-08-08T08:59:15.299Z,35.40
2022-08-08T09:01:56.283Z,34.95
2022-08-08T09:04:39.583Z,34.60
2022-08-08T09:07:22.760Z,34.42
2022-08-08T09:09:57.698Z,34.45
2022-08-08T09:12:35.903Z,34.32
2022-08-08T09:15:06.145Z,34.14
2022-08-08T09:17:41.907Z,34.07
2022-08-08T09:21:58.408Z,33.94
2022-08-08T09:23:17.733Z,33.34
2022-08-08T09:26:02.154Z,32.32
2022-08-08T09:28:39.103Z,31.57
2022-08-08T09:31:42.584Z,31.05
2022-08-08T09:34:30.993Z,30.53
2022-08-08T09:37:57.864Z,30.10
2022-08-08T09:40:11.161Z,29.71
2022-08-08T09:42:54.621Z,29.29
2022-08-08T09:46:00.703Z,28.89
2022-08-08T09:48:35.654Z,28.57
2022-08-08T09:51:05.505Z,28.28
2022-08-08T09:53:56.540Z,28.28
2022-08-08T09:56:41.109Z,28.32
2022-08-08T09:59:39.748Z,28.37
2022-08-08T10:02:12.898Z,28.32
2022-08-08T10:04:48.002Z,28.25
2022-08-08T10:07:17.350Z,28.26
2022-08-08T10:10:00.729Z,28.21
2022-08-08T10:12:37.963Z,28.35
2022-08-08T10:15:21.963Z,28.25
2022-08-08T10:18:06.206Z,28.25
2022-08-08T10:20:51.037Z,28.25
2022-08-08T10:23:41.585Z,28.30
2022-08-08T10:26:30.094Z,28.45
2022-08-08T10:29:05.811Z,28.48
2022-08-08T10:31:55.242Z,28.29
2022-08-08T10:34:27.510Z,28.22
2022-08-08T10:36:59.863Z,28.15
2022-08-08T10:39:43.674Z,28.12
2022-08-08T10:42:20.872Z,28.19
2022-08-08T10:44:50.340Z,28.41
2022-08-08T10:47:21.031Z,28.61
2022-08-08T10:50:00.795Z,28.70
2022-08-08T10:52:39.085Z,28.64
2022-08-08T10:55:09.242Z,28.47
2022-08-08T10:57:49.689Z,28.38
2022-08-08T11:00:25.505Z,28.49
2022-08-08T11:02:55.273Z,28.59
2022-08-08T11:05:23.999Z,28.64
2022-08-08T11:08:38.427Z,28.59
2022-08-08T11:10:43.091Z,28.60
2022-08-08T11:13:29.054Z,28.53
2022-08-08T11:16:00.766Z,28.57
2022-08-08T11:18:36.703Z,28.68
2022-08-08T11:21:08.959Z,28.92
2022-08-08T11:23:41.517Z,29.12
2022-08-08T11:26:19.413Z,29.10
2022-08-08T11:28:51.059Z,28.94
2022-08-08T11:31:20.961Z,28.92
2022-08-08T11:34:01.944Z,28.84
2022-08-08T11:36:36.515Z,28.68
2022-08-08T11:39:06.167Z,28.53
2022-08-08T11:41:42.263Z,28.13
2022-08-08T11:44:14.939Z,27.69
2022-08-08T11:46:43.877Z,27.39
2022-08-08T11:49:14.643Z,27.21
2022-08-08T11:51:50.736Z,27.23
2022-08-08T11:54:37.936Z,27.43
2022-08-08T11:57:27.526Z,27.51
2022-08-08T12:00:00.976Z,27.46
2022-08-08T12:02:52.112Z,27.30
2022-08-08T12:05:33.579Z,27.33
2022-08-08T12:08:02.300Z,27.24
2022-08-08T12:10:32.536Z,27.37
2022-08-08T12:13:05.116Z,27.61
2022-08-08T12:15:42.281Z,27.82
2022-08-08T12:18:20.610Z,27.82
2022-08-08T12:20:53.188Z,27.71
2022-08-08T12:23:42.696Z,27.61
2022-08-08T12:26:27.987Z,27.43
2022-08-08T12:29:40.816Z,27.19
2022-08-08T12:32:13.615Z,26.84
2022-08-08T12:35:01.354Z,26.65
2022-08-08T12:37:40.591Z,26.63
2022-08-08T12:40:23.783Z,26.66
2022-08-08T12:42:53.351Z,26.78
2022-08-08T12:45:57.732Z,26.89
2022-08-08T12:48:37.243Z,26.97
2022-08-08T12:51:11.218Z,26.94
2022-08-08T12:53:59.285Z,26.95
2022-08-08T12:56:36.045Z,27.00
2022-08-08T12:59:18.686Z,27.08
2022-08-08T13:01:56.732Z,27.04
2022-08-08T13:04:27.202Z,26.94
2022-08-08T13:07:04.529Z,26.79
2022-08-08T13:10:03.285Z,26.59
2022-08-08T13:12:44.413Z,26.57
2022-08-08T13:15:17.197Z,26.70
2022-08-08T13:17:53.915Z,26.80
2022-08-08T13:20:44.996Z,26.92
2022-08-08T13:23:30.622Z,27.13
2022-08-08T13:26:12.623Z,27.29
2022-08-08T13:28:42.387Z,27.42
2022-08-08T13:31:16.155Z,27.55
2022-08-08T13:33:49.828Z,27.67
2022-08-08T13:36:25.904Z,27.78
2022-08-08T13:38:59.245Z,27.82
2022-08-08T13:41:37.560Z,27.75
2022-08-08T13:44:10.801Z,27.64
2022-08-08T13:46:39.757Z,27.42
2022-08-08T13:50:35.789Z,27.22
2022-08-08T13:52:07.691Z,26.96
2022-08-08T13:54:44.000Z,26.73
2022-08-08T13:57:15.012Z,26.50
2022-08-08T13:59:49.142Z,26.34
2022-08-08T14:02:22.359Z,26.25
2022-08-08T14:05:09.166Z,26.21
2022-08-08T14:07:51.850Z,26.19
2022-08-08T14:10:32.659Z,26.19
2022-08-08T14:13:31.077Z,26.09
2022-08-08T14:16:03.465Z,25.99
2022-08-08T14:18:36.815Z,25.87
2022-08-08T14:21:20.775Z,25.77
2022-08-08T14:24:08.134Z,25.80
2022-08-08T14:26:42.460Z,25.93
2022-08-08T14:29:26.855Z,26.07
2022-08-08T14:32:10.033Z,26.25
2022-08-08T14:34:50.311Z,26.35
2022-08-08T14:37:20.582Z,26.48
2022-08-08T14:40:06.679Z,26.49
2022-08-08T14:42:55.177Z,26.54
2022-08-08T14:45:33.776Z,26.54
2022-08-08T14:48:16.217Z,26.47
2022-08-08T14:50:47.133Z,26.41
2022-08-08T14:53:15.860Z,26.39
2022-08-08T14:55:43.895Z,26.30
2022-08-08T14:58:16.502Z,26.16
2022-08-08T15:00:48.996Z,26.01
2022-08-08T15:03:18.648Z,25.96
2022-08-08T15:05:53.633Z,25.96
2022-08-08T15:08:34.653Z,25.91
2022-08-08T15:11:11.395Z,25.74
2022-08-08T15:14:00.416Z,25.60
2022-08-08T15:16:29.099Z,25.55
2022-08-08T15:18:56.974Z,25.63
2022-08-08T15:21:27.796Z,25.75
2022-08-08T15:23:58.869Z,25.88
2022-08-08T15:26:29.308Z,26.01
2022-08-08T15:28:57.824Z,26.09
2022-08-08T15:32:18.125Z,26.12
2022-08-08T15:34:18.755Z,26.05
2022-08-08T15:37:03.136Z,25.93
2022-08-08T15:39:38.081Z,25.80
2022-08-08T15:42:13.368Z,25.59
2022-08-08T15:44:46.083Z,25.44
2022-08-08T15:47:15.836Z,25.33
2022-08-08T15:49:48.543Z,25.28
2022-08-08T15:52:20.821Z,25.29
2022-08-08T15:54:51.609Z,25.33
2022-08-08T15:57:21.972Z,25.37
2022-08-08T16:00:05.597Z,25.36
2022-08-08T16:02:44.500Z,25.37
2022-08-08T16:05:23.737Z,25.28
2022-08-08T16:07:54.012Z,25.21
2022-08-08T16:13:14.685Z,25.23
2022-08-08T16:13:32.192Z,25.28
2022-08-08T16:16:16.472Z,25.30
2022-08-08T16:18:53.122Z,25.26
2022-08-08T16:21:29.152Z,25.12
2022-08-08T16:24:03.357Z,25.03
2022-08-08T16:26:36.912Z,24.97
2022-08-08T16:29:09.009Z,24.95
2022-08-08T16:31:42.126Z,24.89
2022-08-08T16:34:21.574Z,24.80
2022-08-08T16:36:50.351Z,24.71
2022-08-08T16:39:49.042Z,24.62
2022-08-08T16:42:17.930Z,24.49
2022-08-08T16:44:54.700Z,24.31
2022-08-08T16:47:39.911Z,24.19
2022-08-08T16:50:16.725Z,24.16
2022-08-08T16:55:02.364Z,24.14
2022-08-08T16:55:55.794Z,24.08
2022-08-08T16:58:32.444Z,24.02
2022-08-08T17:01:05.555Z,23.96
2022-08-08T17:03:58.694Z,23.91
2022-08-08T17:06:37.305Z,23.86
2022-08-08T17:09:15.598Z,23.78
2022-08-08T17:11:49.273Z,23.69
2022-08-08T17:14:27.086Z,23.63
2022-08-08T17:16:58.206Z,23.58
2022-08-08T17:19:30.463Z,23.49
2022-08-08T17:22:06.248Z,23.37
2022-08-08T17:24:35.232Z,23.29
2022-08-08T17:27:05.002Z,23.21
2022-08-08T17:29:36.488Z,23.13
2022-08-08T17:32:11.762Z,23.07
2022-08-08T17:34:54.183Z,23.00
2022-08-08T17:37:27.804Z,22.95
2022-08-08T17:40:12.448Z,22.95
2022-08-08T17:42:47.298Z,22.90
2022-08-08T17:45:22.855Z,22.81
2022-08-08T17:47:54.171Z,22.75
2022-08-08T17:50:23.743Z,22.67
2022-08-08T17:52:53.160Z,22.59
2022-08-08T17:56:05.973Z,22.54
2022-08-08T17:58:09.081Z,22.43
2022-08-08T18:00:41.191Z,22.31
2022-08-08T18:03:13.815Z,22.21
2022-08-08T18:05:47.875Z,22.16
2022-08-08T18:08:25.060Z,22.04
2022-08-08T18:11:17.194Z,21.90
2022-08-08T18:13:47.083Z,21.79
2022-08-08T18:16:20.174Z,21.69
2022-08-08T18:18:53.221Z,21.59
2022-08-08T18:21:35.144Z,21.49
2022-08-08T18:24:19.582Z,21.42
2022-08-08T18:26:54.346Z,21.34
2022-08-08T18:29:33.227Z,21.29
2022-08-08T18:32:06.594Z,21.21
2022-08-08T18:34:36.164Z,21.10
2022-08-08T18:37:06.482Z,20.99
2022-08-08T18:39:42.156Z,20.90
2022-08-08T18:42:16.164Z,20.81
2022-08-08T18:44:52.722Z,20.73
2022-08-08T18:47:25.865Z,20.69
2022-08-08T18:49:58.339Z,20.57
2022-08-08T18:52:29.853Z,20.55
2022-08-08T18:55:09.826Z,20.46
2022-08-08T18:57:44.742Z,20.36
2022-08-08T19:00:20.511Z,20.29
2022-08-08T19:02:56.489Z,20.22
2022-08-08T19:05:31.914Z,20.15
2022-08-08T19:08:29.693Z,20.07
2022-08-08T19:10:59.706Z,20.01
2022-08-08T19:13:47.304Z,19.99
2022-08-08T19:16:20.187Z,20.01
2022-08-08T19:19:00.386Z,20.08
2022-08-08T19:21:33.853Z,20.11
2022-08-08T19:24:42.174Z,20.12
2022-08-08T19:27:07.325Z,20.12
2022-08-08T19:29:42.214Z,20.12
2022-08-08T19:32:13.228Z,20.08
2022-08-08T19:34:51.333Z,20.00
2022-08-08T19:37:42.283Z,19.95
2022-08-08T19:40:16.270Z,19.86
2022-08-08T19:42:45.995Z,19.77
2022-08-08T19:45:58.506Z,19.69
2022-08-08T19:48:28.105Z,19.62
2022-08-08T19:50:55.649Z,19.57
2022-08-08T19:53:52.076Z,19.54
2022-08-08T19:56:12.893Z,19.49
2022-08-08T19:58:41.870Z,19.46
2022-08-08T20:01:18.978Z,19.44
2022-08-08T20:04:00.298Z,19.42
2022-08-08T20:06:31.268Z,19.41
2022-08-08T20:08:59.752Z,19.41
2022-08-08T20:11:32.430Z,19.41
2022-08-08T20:14:32.728Z,19.42
2022-08-08T20:16:48.076Z,19.43
2022-08-08T20:19:20.978Z,19.44
2022-08-08T20:21:48.949Z,19.43
2022-08-08T20:24:18.957Z,19.42
2022-08-08T20:26:49.435Z,19.41
2022-08-08T20:29:18.206Z,19.38
2022-08-08T20:32:02.504Z,19.35
2022-08-08T20:34:35.200Z,19.29
2022-08-08T20:37:04.715Z,19.22
2022-08-08T20:39:41.397Z,19.15
2022-08-08T20:42:28.296Z,19.07
2022-08-08T20:44:58.838Z,19.01
2022-08-08T20:47:26.859Z,18.99
2022-08-08T20:50:05.677Z,18.96
2022-08-08T20:52:33.626Z,18.92
2022-08-08T20:55:01.643Z,18.89
2022-08-08T20:57:35.683Z,18.88
2022-08-08T21:00:12.640Z,18.88
2022-08-08T21:02:40.557Z,18.88
2022-08-08T21:05:12.119Z,18.88
2022-08-08T21:07:47.607Z,18.89
2022-08-08T21:10:29.462Z,18.90
2022-08-08T21:12:57.840Z,18.92
2022-08-08T21:16:05.402Z,18.93
2022-08-08T21:18:13.850Z,18.93
2022-08-08T21:20:42.388Z,18.93
2022-08-08T21:23:13.052Z,18.90
2022-08-08T21:25:43.711Z,18.85
2022-08-08T21:28:16.372Z,18.82
2022-08-08T21:30:49.655Z,18.80
2022-08-08T21:33:20.730Z,18.83
2022-08-08T21:36:14.350Z,18.85
2022-08-08T21:38:36.886Z,18.86
2022-08-08T21:41:05.150Z,18.89
2022-08-08T21:43:34.938Z,18.91
2022-08-08T21:48:04.938Z,18.91
2022-08-08T21:48:54.956Z,18.89
2022-08-08T21:54:17.622Z,18.86
2022-08-08T21:54:50.558Z,18.83
2022-08-08T21:57:06.156Z,18.82
2022-08-08T22:00:02.753Z,18.83
2022-08-08T22:02:23.433Z,18.79
2022-08-08T22:04:59.259Z,18.78
2022-08-08T22:07:39.845Z,18.76
2022-08-08T22:10:28.838Z,18.72
2022-08-08T22:13:17.705Z,18.69
2022-08-08T22:15:58.624Z,18.64
2022-08-08T22:18:30.654Z,18.59
2022-08-08T22:21:14.371Z,18.58
2022-08-08T22:23:50.507Z,18.55
2022-08-08T22:26:29.011Z,18.55
2022-08-08T22:29:04.668Z,18.51
2022-08-08T22:31:43.990Z,18.44
2022-08-08T22:34:39.389Z,18.36
2022-08-08T22:37:14.897Z,18.27
2022-08-08T22:40:00.740Z,18.19
2022-08-08T22:42:31.877Z,18.19
2022-08-08T22:45:12.532Z,18.21
2022-08-08T22:47:48.695Z,18.20
2022-08-08T22:50:26.132Z,18.15
2022-08-08T22:54:30.321Z,18.09
2022-08-08T22:55:59.351Z,18.03
2022-08-08T22:58:33.134Z,17.99
2022-08-08T23:02:01.707Z,17.92
2022-08-08T23:03:54.677Z,17.97
2022-08-08T23:06:27.179Z,17.98
2022-08-08T23:08:58.748Z,17.98
2022-08-08T23:12:18.133Z,17.98
2022-08-08T23:14:20.637Z,17.99
2022-08-08T23:16:54.446Z,18.02
2022-08-08T23:19:30.758Z,18.00
2022-08-08T23:22:04.791Z,17.96
2022-08-08T23:24:41.348Z,17.91
2022-08-08T23:27:37.489Z,17.87
2022-08-08T23:29:59.623Z,17.82
2022-08-08T23:32:27.424Z,17.78
2022-08-08T23:34:58.752Z,17.74
2022-08-08T23:38:02.387Z,17.72
2022-08-08T23:40:16.917Z,17.73
2022-08-08T23:42:50.182Z,17.75
2022-08-08T23:49:00.081Z,17.73
2022-08-08T23:49:04.027Z,17.76
2022-08-08T23:50:57.260Z,17.69
2022-08-08T23:53:55.683Z,17.67
2022-08-08T23:56:13.211Z,17.62
2022-08-08T23:58:51.813Z,17.61
